Time;durP1;ratioP1;P1;durP2;ratioP2;P2;SDS_P1;SDS_P2;PMS_P1;PMS_P2;Temp;Humidity;BMP_temperature;BMP_pressure;BME280_temperature;BME280_humidity;BME280_pressure;Samples;Min_cycle;Max_cycle;Signal;HPM_P1;HPM_P2
2022/03/27 06:01:57;;;;;;;66.32;32.08;;;;;;;;;;5214667;23;20047;-89
2022/03/27 06:04:24;;;;;;;65.10;32.45;;;;;;;;;;4946706;28;20167;-87
2022/03/27 06:06:51;;;;;;;72.50;33.40;;;;;;;;;;4935165;29;20047;-88
2022/03/27 06:09:20;;;;;;;80.90;32.58;;;;;;;;;;4932937;28;20067;-87
2022/03/27 06:11:47;;;;;;;69.63;33.22;;;;;;;;;;4934747;28;20071;-88
2022/03/27 06:14:14;;;;;;;67.00;32.05;;;;;;;;;;4932718;28;20044;-88
2022/03/27 06:16:41;;;;;;;67.68;33.00;;;;;;;;;;4934108;28;20082;-87
2022/03/27 06:19:07;;;;;;;73.70;33.00;;;;;;;;;;4931119;28;20109;-89
2022/03/27 06:21:34;;;;;;;70.78;32.78;;;;;;;;;;4931708;28;20539;-89
2022/03/27 06:24:01;;;;;;;72.13;32.95;;;;;;;;;;4932132;28;20516;-89
2022/03/27 06:26:27;;;;;;;76.05;33.38;;;;;;;;;;4933903;28;20081;-89
2022/03/27 06:28:54;;;;;;;70.40;33.33;;;;;;;;;;4934250;28;20075;-88
2022/03/27 06:31:20;;;;;;;67.13;33.13;;;;;;;;;;4933047;28;20099;-89
2022/03/27 06:33:47;;;;;;;77.18;34.25;;;;;;;;;;4931824;28;20051;-88
2022/03/27 06:36:13;;;;;;;69.97;33.33;;;;;;;;;;4928307;28;20096;-88
2022/03/27 06:38:40;;;;;;;76.60;33.70;;;;;;;;;;4919584;28;20056;-89
2022/03/27 06:41:07;;;;;;;70.50;34.22;;;;;;;;;;4931801;28;20062;-88
2022/03/27 06:43:36;;;;;;;78.13;35.45;;;;;;;;;;4934725;28;20047;-88
2022/03/27 06:46:02;;;;;;;67.15;32.45;;;;;;;;;;4933396;28;20071;-89
2022/03/27 06:48:29;;;;;;;77.55;34.95;;;;;;;;;;4931295;28;20552;-89
2022/03/27 06:50:56;;;;;;;72.78;34.45;;;;;;;;;;4932810;28;20047;-89
2022/03/27 06:53:24;;;;;;;76.78;34.70;;;;;;;;;;4931471;28;20468;-89
2022/03/27 06:55:51;;;;;;;73.25;34.25;;;;;;;;;;4933742;28;20571;-89
2022/03/27 06:58:18;;;;;;;77.25;35.40;;;;;;;;;;4930516;28;20130;-89
2022/03/27 07:03:30;;;;;;;71.55;35.10;;;;;;;;;;4930961;28;20044;-89
2022/03/27 07:05:57;;;;;;;79.97;37.10;;;;;;;;;;4931572;28;20066;-88
2022/03/27 07:08:23;;;;;;;73.60;35.90;;;;;;;;;;4930592;28;20056;-88
2022/03/27 07:10:50;;;;;;;75.07;35.85;;;;;;;;;;4933842;28;20040;-87
2022/03/27 07:13:19;;;;;;;71.32;34.78;;;;;;;;;;4936511;28;20579;-88
2022/03/27 07:15:47;;;;;;;74.85;35.53;;;;;;;;;;4930640;28;20595;-88
2022/03/27 07:18:16;;;;;;;81.65;37.35;;;;;;;;;;4930891;28;20135;-88
2022/03/27 07:20:45;;;;;;;77.07;35.63;;;;;;;;;;4929460;29;20040;-88
2022/03/27 07:23:15;;;;;;;79.32;37.38;;;;;;;;;;4931260;28;20057;-87
2022/03/27 07:25:44;;;;;;;78.03;36.47;;;;;;;;;;4933191;28;20071;-88
2022/03/27 07:28:12;;;;;;;81.63;37.63;;;;;;;;;;4930320;28;20106;-87
2022/03/27 07:30:41;;;;;;;81.60;38.78;;;;;;;;;;4931774;28;20048;-88
2022/03/27 07:33:08;;;;;;;78.97;37.97;;;;;;;;;;4930486;28;20512;-88
2022/03/27 07:35:34;;;;;;;78.65;38.72;;;;;;;;;;4929981;28;20076;-87
2022/03/27 07:38:03;;;;;;;76.63;36.20;;;;;;;;;;4928335;28;20075;-88
2022/03/27 07:40:30;;;;;;;77.30;37.45;;;;;;;;;;4927705;28;20725;-88
2022/03/27 07:42:57;;;;;;;79.15;37.95;;;;;;;;;;4928505;28;20138;-89
2022/03/27 07:45:26;;;;;;;76.38;37.15;;;;;;;;;;4932478;28;20543;-88
2022/03/27 07:47:54;;;;;;;79.63;37.85;;;;;;;;;;4927759;28;20111;-89
2022/03/27 07:50:23;;;;;;;76.60;36.47;;;;;;;;;;4927619;28;20071;-89
2022/03/27 07:52:50;;;;;;;76.28;34.47;;;;;;;;;;4929255;28;20051;-89
2022/03/27 07:55:18;;;;;;;75.72;36.97;;;;;;;;;;4929139;28;20103;-88
2022/03/27 07:57:45;;;;;;;76.80;36.93;;;;;;;;;;4929487;28;20131;-90
2022/03/27 08:00:14;;;;;;;71.35;36.30;;;;;;;;;;4933372;28;21194;-88
2022/03/27 08:02:42;;;;;;;73.32;36.45;;;;;;;;;;4911707;28;20110;-88
2022/03/27 08:05:10;;;;;;;86.50;39.58;;;;;;;;;;4928526;28;20058;-88
2022/03/27 08:07:37;;;;;;;69.43;35.50;;;;;;;;;;4930598;28;20463;-89
2022/03/27 08:10:05;;;;;;;69.45;34.83;;;;;;;;;;4929572;28;20059;-87
2022/03/27 08:12:32;;;;;;;73.95;36.78;;;;;;;;;;4919400;28;20075;-88
2022/03/27 08:14:58;;;;;;;72.25;36.92;;;;;;;;;;4931747;28;20605;-88
2022/03/27 08:17:25;;;;;;;73.75;36.70;;;;;;;;;;4926567;28;20079;-87
2022/03/27 08:19:52;;;;;;;70.97;35.70;;;;;;;;;;4927962;28;20472;-88
2022/03/27 08:22:24;;;;;;;73.22;34.63;;;;;;;;;;4927994;28;20555;-86
2022/03/27 08:24:51;;;;;;;65.88;35.08;;;;;;;;;;4924062;28;20426;-88
2022/03/27 08:27:20;;;;;;;76.68;37.08;;;;;;;;;;4923644;28;20423;-88
2022/03/27 08:29:48;;;;;;;72.03;35.95;;;;;;;;;;4932644;28;20613;-88
2022/03/27 08:32:16;;;;;;;75.13;35.97;;;;;;;;;;4925983;28;20093;-88
2022/03/27 08:34:45;;;;;;;68.38;36.63;;;;;;;;;;4933988;28;20419;-88
2022/03/27 08:37:14;;;;;;;75.00;36.20;;;;;;;;;;4929533;28;20078;-89
2022/03/27 08:39:44;;;;;;;65.88;33.90;;;;;;;;;;4922543;28;20076;-89
2022/03/27 08:42:14;;;;;;;70.80;35.88;;;;;;;;;;4928788;28;20048;-88
2022/03/27 08:44:40;;;;;;;67.15;34.80;;;;;;;;;;4927364;28;20059;-88
2022/03/27 08:47:24;;;;;;;72.80;35.67;;;;;;;;;;4918505;28;20563;-88
2022/03/27 08:50:07;;;;;;;69.32;35.08;;;;;;;;;;4925527;28;20625;-87
2022/03/27 08:52:48;;;;;;;69.70;33.42;;;;;;;;;;4914946;28;20111;-88
2022/03/27 08:55:22;;;;;;;74.35;37.15;;;;;;;;;;4919456;28;20100;-87
2022/03/27 08:57:56;;;;;;;72.25;35.92;;;;;;;;;;4920765;29;20056;-90
2022/03/27 09:00:26;;;;;;;62.08;32.20;;;;;;;;;;4920362;28;20126;-88
2022/03/27 09:02:54;;;;;;;63.40;33.75;;;;;;;;;;4921634;28;20243;-89
2022/03/27 09:05:22;;;;;;;69.13;35.20;;;;;;;;;;4921993;28;20127;-87
2022/03/27 09:07:50;;;;;;;68.47;34.63;;;;;;;;;;4925073;28;20520;-87
2022/03/27 09:10:17;;;;;;;70.93;34.58;;;;;;;;;;4923042;28;20147;-84
2022/03/27 09:12:45;;;;;;;66.15;32.53;;;;;;;;;;4924726;28;20082;-86
2022/03/27 09:15:19;;;;;;;61.78;33.15;;;;;;;;;;4927821;28;20049;-91
2022/03/27 09:18:17;;;;;;;72.40;35.92;;;;;;;;;;4930023;28;20040;-87
2022/03/27 09:20:48;;;;;;;63.80;33.05;;;;;;;;;;4930205;28;20113;-88
2022/03/27 09:23:15;;;;;;;61.58;32.08;;;;;;;;;;4932818;28;20044;-88
2022/03/27 09:25:48;;;;;;;68.22;35.25;;;;;;;;;;4937990;28;20079;-89
2022/03/27 09:28:25;;;;;;;64.10;32.30;;;;;;;;;;4937242;28;20059;-91
2022/03/27 09:30:52;;;;;;;60.08;32.10;;;;;;;;;;4938482;28;20079;-90
2022/03/27 09:33:48;;;;;;;65.90;33.65;;;;;;;;;;4937250;28;20052;-90
2022/03/27 09:36:46;;;;;;;63.70;33.92;;;;;;;;;;4927674;28;20051;-90
2022/03/27 09:39:22;;;;;;;58.97;31.65;;;;;;;;;;4929177;28;20048;-88
2022/03/27 09:42:03;;;;;;;65.75;33.45;;;;;;;;;;4931754;28;20056;-91
2022/03/27 09:44:34;;;;;;;66.15;33.85;;;;;;;;;;4925418;29;20483;-90
2022/03/27 09:47:02;;;;;;;67.05;33.92;;;;;;;;;;4935257;28;20051;-90
2022/03/27 09:49:35;;;;;;;63.20;34.15;;;;;;;;;;4933976;28;20067;-90
2022/03/27 09:52:10;;;;;;;59.35;32.22;;;;;;;;;;4933979;28;20118;-90
2022/03/27 09:54:49;;;;;;;67.10;34.85;;;;;;;;;;4928599;28;20150;-92
2022/03/27 09:57:29;;;;;;;61.92;32.85;;;;;;;;;;4922768;28;20051;-91
2022/03/27 10:00:11;;;;;;;66.10;35.88;;;;;;;;;;4932592;28;20071;-89
2022/03/27 10:02:38;;;;;;;62.88;33.22;;;;;;;;;;4931079;28;20043;-89
2022/03/27 10:05:10;;;;;;;64.85;34.38;;;;;;;;;;4930312;28;20051;-88
2022/03/27 10:07:42;;;;;;;55.63;30.92;;;;;;;;;;4941207;28;20118;-89
2022/03/27 10:10:14;;;;;;;63.35;30.30;;;;;;;;;;4934127;28;20075;-91
2022/03/27 10:12:43;;;;;;;59.05;29.85;;;;;;;;;;4932060;28;20043;-87
2022/03/27 10:15:13;;;;;;;61.65;31.00;;;;;;;;;;4930804;28;20043;-83
2022/03/27 10:17:45;;;;;;;61.63;32.33;;;;;;;;;;4930081;28;20087;-86
2022/03/27 10:20:17;;;;;;;62.75;32.75;;;;;;;;;;4928049;28;20076;-83
2022/03/27 10:22:49;;;;;;;62.55;34.03;;;;;;;;;;4927900;28;20082;-87
2022/03/27 10:25:17;;;;;;;64.15;33.85;;;;;;;;;;4927125;28;20143;-88
2022/03/27 10:27:46;;;;;;;60.50;32.60;;;;;;;;;;4920410;28;20052;-86
2022/03/27 10:30:16;;;;;;;63.10;32.28;;;;;;;;;;4919730;28;20051;-86
2022/03/27 10:32:44;;;;;;;55.47;30.02;;;;;;;;;;4924144;29;20059;-88
2022/03/27 10:35:40;;;;;;;57.40;31.05;;;;;;;;;;4919145;28;20051;-87
2022/03/27 10:38:06;;;;;;;60.13;32.45;;;;;;;;;;4915607;29;20099;-88
2022/03/27 10:41:13;;;;;;;59.92;30.55;;;;;;;;;;4918640;28;20062;-90
2022/03/27 10:43:49;;;;;;;55.05;30.30;;;;;;;;;;4921074;29;20059;-88
2022/03/27 10:46:19;;;;;;;59.83;32.28;;;;;;;;;;4919675;28;20165;-88
2022/03/27 10:48:48;;;;;;;51.30;29.17;;;;;;;;;;4927555;28;20047;-89
2022/03/27 10:51:28;;;;;;;59.97;31.52;;;;;;;;;;4930393;28;20075;-91
2022/03/27 10:54:04;;;;;;;52.42;30.23;;;;;;;;;;4926957;28;20051;-89
2022/03/27 10:56:38;;;;;;;58.25;29.88;;;;;;;;;;4921861;29;20106;-90
2022/03/27 10:59:15;;;;;;;57.22;30.50;;;;;;;;;;4921447;28;20071;-90
2022/03/27 11:01:44;;;;;;;54.95;29.23;;;;;;;;;;4927071;28;20103;-91
2022/03/27 11:04:16;;;;;;;51.97;28.83;;;;;;;;;;4933701;28;20048;-94
2022/03/27 11:06:46;;;;;;;50.10;29.38;;;;;;;;;;4929650;28;20055;-91
2022/03/27 11:09:44;;;;;;;45.83;27.65;;;;;;;;;;4922847;28;20071;-93
2022/03/27 11:12:20;;;;;;;;;;;;;;;;;;4921492;28;20071;-86
2022/03/27 11:14:53;;;;;;;52.92;28.67;;;;;;;;;;4930228;28;19927;-87
2022/03/27 11:17:30;;;;;;;53.17;28.83;;;;;;;;;;4928685;28;20047;-90
2022/03/27 11:19:57;;;;;;;53.22;30.40;;;;;;;;;;4929867;28;20082;-90
2022/03/27 11:22:43;;;;;;;55.38;29.77;;;;;;;;;;4930760;28;20890;-85
2022/03/27 11:25:35;;;;;;;56.78;30.75;;;;;;;;;;4927362;28;20142;-84
2022/03/27 11:28:02;;;;;;;52.63;29.55;;;;;;;;;;4927594;28;20110;-84
2022/03/27 11:30:48;;;;;;;51.35;27.98;;;;;;;;;;4927810;28;20409;-85
2022/03/27 11:33:16;;;;;;;51.35;28.02;;;;;;;;;;4926826;28;20052;-87
2022/03/27 11:36:09;;;;;;;47.80;27.25;;;;;;;;;;4929382;28;20424;-86
2022/03/27 11:38:54;;;;;;;52.58;28.48;;;;;;;;;;4918980;28;20058;-87
2022/03/27 11:41:25;;;;;;;46.60;26.17;;;;;;;;;;4928670;28;20079;-85
2022/03/27 11:43:54;;;;;;;52.50;28.35;;;;;;;;;;4931642;28;20127;-87
2022/03/27 11:46:26;;;;;;;54.88;29.15;;;;;;;;;;4931694;28;20075;-85
2022/03/27 11:48:57;;;;;;;54.70;29.05;;;;;;;;;;4928808;28;20044;-86
2022/03/27 11:51:24;;;;;;;52.80;30.13;;;;;;;;;;4931101;28;20103;-85
2022/03/27 11:53:55;;;;;;;55.72;30.42;;;;;;;;;;4931738;28;20044;-85
2022/03/27 11:56:24;;;;;;;53.63;29.70;;;;;;;;;;4925813;28;20126;-83
2022/03/27 11:59:04;;;;;;;54.15;29.48;;;;;;;;;;4931542;28;20051;-85
2022/03/27 12:01:31;;;;;;;53.65;29.00;;;;;;;;;;4930409;28;20055;-83
2022/03/27 12:03:59;;;;;;;56.70;29.98;;;;;;;;;;4929340;28;20048;-84
2022/03/27 12:06:28;;;;;;;64.45;31.55;;;;;;;;;;4930825;28;20531;-86
2022/03/27 12:08:56;;;;;;;67.93;33.50;;;;;;;;;;4930625;28;20051;-84
2022/03/27 12:11:25;;;;;;;;;;;;;;;;;;4918296;29;22908;-83
2022/03/27 12:13:53;;;;;;;80.80;43.70;;;;;;;;;;4933541;28;20384;-85
2022/03/27 12:16:22;;;;;;;79.43;38.70;;;;;;;;;;4932335;28;20112;-84
2022/03/27 12:18:50;;;;;;;69.07;34.38;;;;;;;;;;4932603;28;20433;-85
2022/03/27 12:21:22;;;;;;;88.22;40.47;;;;;;;;;;4930572;28;20048;-84
2022/03/27 12:23:49;;;;;;;81.40;39.70;;;;;;;;;;4929086;28;20505;-83
2022/03/27 12:32:29;;;;;;;49.10;27.65;;;;;;;;;;4907069;29;20047;-84
2022/03/27 12:35:01;;;;;;;45.90;25.25;;;;;;;;;;4910512;29;20516;-84
2022/03/27 12:37:31;;;;;;;36.58;20.88;;;;;;;;;;4894405;29;20052;-84
2022/03/27 12:40:03;;;;;;;36.17;19.83;;;;;;;;;;4911467;29;20103;-86
2022/03/27 12:42:29;;;;;;;30.70;19.10;;;;;;;;;;4913395;29;20055;-85
2022/03/27 12:45:21;;;;;;;26.85;16.63;;;;;;;;;;4911991;29;20044;-84
2022/03/27 12:47:50;;;;;;;30.92;18.50;;;;;;;;;;4905214;29;20052;-85
2022/03/27 12:50:26;;;;;;;29.40;17.10;;;;;;;;;;4903844;29;20083;-87
2022/03/27 12:53:24;;;;;;;30.65;18.00;;;;;;;;;;4909989;29;20044;-85
2022/03/27 12:55:52;;;;;;;26.33;17.20;;;;;;;;;;4903435;29;20053;-87
2022/03/27 12:58:20;;;;;;;29.08;16.27;;;;;;;;;;4909250;29;20123;-84
2022/03/27 13:01:06;;;;;;;25.33;16.70;;;;;;;;;;4907153;29;20067;-87
2022/03/27 13:03:38;;;;;;;25.80;16.10;;;;;;;;;;4923870;28;20497;-86
2022/03/27 13:06:07;;;;;;;25.15;17.23;;;;;;;;;;4929682;28;20078;-85
2022/03/27 13:08:41;;;;;;;33.15;19.13;;;;;;;;;;4931322;28;20052;-85
2022/03/27 13:11:21;;;;;;;35.55;19.85;;;;;;;;;;4933539;28;20055;-85
2022/03/27 13:14:00;;;;;;;27.42;16.92;;;;;;;;;;4935775;28;20161;-85
2022/03/27 13:16:29;;;;;;;;;;;;;;;;;;4931675;28;20123;-84
2022/03/27 13:19:11;;;;;;;24.77;14.40;;;;;;;;;;4919847;28;20022;-84
2022/03/27 13:21:40;;;;;;;29.45;16.50;;;;;;;;;;4927797;28;20524;-84
2022/03/27 13:24:18;;;;;;;26.00;16.92;;;;;;;;;;4923810;28;20547;-85
2022/03/27 13:26:53;;;;;;;24.88;16.25;;;;;;;;;;4929432;28;20067;-86
2022/03/27 13:29:21;;;;;;;23.00;15.10;;;;;;;;;;4924445;28;20051;-84
2022/03/27 13:31:49;;;;;;;23.83;15.25;;;;;;;;;;4919369;28;20048;-84
2022/03/27 13:34:17;;;;;;;20.70;14.57;;;;;;;;;;4930030;28;20583;-84
2022/03/27 13:36:49;;;;;;;20.58;13.48;;;;;;;;;;4924946;28;20108;-86
2022/03/27 13:39:17;;;;;;;21.80;13.60;;;;;;;;;;4919923;28;20051;-85
2022/03/27 13:44:32;;;;;;;20.30;13.20;;;;;;;;;;4922596;28;20051;-84
2022/03/27 13:47:06;;;;;;;24.23;12.65;;;;;;;;;;4928394;28;20142;-84
2022/03/27 13:49:33;;;;;;;19.95;13.27;;;;;;;;;;4915597;29;20056;-86
2022/03/27 13:52:01;;;;;;;16.75;11.85;;;;;;;;;;4923471;28;20517;-84
2022/03/27 13:54:27;;;;;;;16.27;10.52;;;;;;;;;;4921793;28;20079;-85
2022/03/27 13:56:54;;;;;;;16.52;9.75;;;;;;;;;;4924131;28;20475;-87
2022/03/27 13:59:20;;;;;;;13.38;9.38;;;;;;;;;;4923380;28;20055;-85
2022/03/27 14:01:49;;;;;;;12.93;8.85;;;;;;;;;;4918196;28;20528;-86
2022/03/27 14:04:16;;;;;;;15.43;8.85;;;;;;;;;;4923318;28;20082;-85
2022/03/27 14:06:44;;;;;;;12.73;7.82;;;;;;;;;;4929584;28;20110;-86
2022/03/27 14:09:11;;;;;;;9.98;8.13;;;;;;;;;;4929159;28;20047;-86
2022/03/27 14:11:40;;;;;;;9.93;7.10;;;;;;;;;;4930233;28;20082;-86
2022/03/27 14:14:06;;;;;;;12.15;7.70;;;;;;;;;;4928601;28;20096;-84
2022/03/27 14:16:35;;;;;;;12.02;7.50;;;;;;;;;;4924673;28;20079;-85
2022/03/27 14:19:03;;;;;;;9.93;7.00;;;;;;;;;;4921826;28;20094;-85
2022/03/27 14:21:30;;;;;;;11.05;7.63;;;;;;;;;;4916091;29;20068;-88
2022/03/27 14:23:56;;;;;;;12.90;7.63;;;;;;;;;;4919011;28;20512;-86
2022/03/27 14:26:23;;;;;;;12.93;7.93;;;;;;;;;;4919940;28;20094;-85
2022/03/27 14:28:55;;;;;;;9.32;7.05;;;;;;;;;;4922153;28;20050;-86
2022/03/27 14:31:22;;;;;;;10.63;7.00;;;;;;;;;;4928142;28;20126;-87
2022/03/27 14:33:49;;;;;;;9.48;7.10;;;;;;;;;;4920939;29;20061;-86
2022/03/27 14:36:17;;;;;;;11.10;7.43;;;;;;;;;;4920423;28;20094;-86
2022/03/27 14:38:44;;;;;;;8.38;7.00;;;;;;;;;;4927022;28;20198;-85
2022/03/27 14:41:10;;;;;;;10.00;6.82;;;;;;;;;;4926339;28;20048;-87
2022/03/27 14:43:37;;;;;;;11.45;6.90;;;;;;;;;;4915293;28;20052;-87
2022/03/27 14:46:03;;;;;;;8.73;6.72;;;;;;;;;;4929012;28;20087;-88
2022/03/27 14:48:32;;;;;;;8.73;6.43;;;;;;;;;;4925366;28;20063;-87
2022/03/27 14:51:00;;;;;;;9.73;6.93;;;;;;;;;;4925360;28;20114;-88
2022/03/27 14:53:31;;;;;;;12.27;7.10;;;;;;;;;;4928000;28;20065;-87
2022/03/27 14:56:02;;;;;;;9.48;6.15;;;;;;;;;;4930156;28;20070;-87
2022/03/27 14:58:30;;;;;;;8.32;6.15;;;;;;;;;;4921607;28;22170;-90
2022/03/27 15:00:58;;;;;;;11.00;5.65;;;;;;;;;;4921852;28;20103;-88
2022/03/27 15:03:25;;;;;;;9.13;6.05;;;;;;;;;;4924895;28;20062;-89
2022/03/27 15:05:53;;;;;;;7.35;5.80;;;;;;;;;;4925319;28;20110;-88
2022/03/27 15:08:20;;;;;;;9.38;5.32;;;;;;;;;;4927690;28;20930;-88
2022/03/27 15:10:47;;;;;;;9.75;5.45;;;;;;;;;;4926580;28;20105;-87
2022/03/27 15:13:13;;;;;;;12.35;5.50;;;;;;;;;;4925380;28;20048;-89
2022/03/27 15:15:40;;;;;;;8.25;5.07;;;;;;;;;;4922696;28;20056;-89
2022/03/27 15:18:07;;;;;;;11.25;4.97;;;;;;;;;;4927969;28;20521;-88
2022/03/27 15:20:34;;;;;;;12.10;4.38;;;;;;;;;;4924616;28;20066;-88
2022/03/27 15:23:00;;;;;;;10.35;4.97;;;;;;;;;;4928697;28;20083;-87
2022/03/27 15:25:27;;;;;;;9.27;4.00;;;;;;;;;;4928971;28;20130;-88
2022/03/27 15:27:53;;;;;;;11.68;4.45;;;;;;;;;;4930122;28;20082;-88
2022/03/27 15:30:20;;;;;;;12.40;4.57;;;;;;;;;;4924721;28;20048;-87
2022/03/27 15:32:47;;;;;;;11.20;4.10;;;;;;;;;;4925244;28;20505;-87
2022/03/27 15:35:14;;;;;;;10.77;4.75;;;;;;;;;;4927691;28;20059;-86
2022/03/27 15:37:42;;;;;;;15.60;5.00;;;;;;;;;;4929113;28;20082;-87
2022/03/27 15:40:09;;;;;;;9.73;3.60;;;;;;;;;;4926996;28;20055;-87
2022/03/27 15:42:38;;;;;;;12.25;4.35;;;;;;;;;;4927390;28;20366;-87
2022/03/27 15:45:06;;;;;;;11.73;4.32;;;;;;;;;;4929089;28;20043;-83
2022/03/27 15:47:33;;;;;;;7.60;4.45;;;;;;;;;;4928088;28;20175;-88
2022/03/27 15:50:00;;;;;;;11.13;4.20;;;;;;;;;;4927119;28;20072;-88
2022/03/27 15:52:26;;;;;;;12.35;4.55;;;;;;;;;;4928009;28;20051;-89
2022/03/27 15:54:53;;;;;;;11.05;4.35;;;;;;;;;;4925376;28;20080;-88
2022/03/27 15:57:19;;;;;;;10.13;4.50;;;;;;;;;;4926266;28;20473;-89
2022/03/27 15:59:46;;;;;;;10.52;4.97;;;;;;;;;;4932569;28;20210;-87
2022/03/27 16:02:12;;;;;;;9.30;4.90;;;;;;;;;;4926130;28;20075;-86
2022/03/27 16:04:40;;;;;;;10.70;3.92;;;;;;;;;;4930952;28;20063;-89
2022/03/27 16:07:07;;;;;;;11.70;5.07;;;;;;;;;;4924976;28;20087;-86
2022/03/27 16:09:34;;;;;;;8.38;3.95;;;;;;;;;;4917500;29;20131;-89
2022/03/27 16:12:00;;;;;;;8.90;4.15;;;;;;;;;;4925793;28;20705;-87
2022/03/27 16:14:28;;;;;;;10.90;4.28;;;;;;;;;;4930101;28;20051;-87
2022/03/27 16:16:55;;;;;;;11.38;4.55;;;;;;;;;;4930549;28;20085;-89
2022/03/27 16:19:22;;;;;;;15.30;3.83;;;;;;;;;;4932288;28;20062;-88
2022/03/27 16:21:49;;;;;;;8.82;3.85;;;;;;;;;;4934153;28;20107;-88
2022/03/27 16:24:16;;;;;;;13.38;4.38;;;;;;;;;;4928819;28;20048;-87
2022/03/27 16:26:43;;;;;;;9.45;4.35;;;;;;;;;;4931219;29;20048;-86
2022/03/27 16:29:09;;;;;;;15.25;4.10;;;;;;;;;;4929144;28;20630;-86
2022/03/27 16:31:36;;;;;;;13.45;4.60;;;;;;;;;;4938336;28;20063;-87
2022/03/27 16:34:03;;;;;;;13.20;4.22;;;;;;;;;;4937610;29;20059;-86
2022/03/27 16:36:31;;;;;;;9.32;4.28;;;;;;;;;;4931160;28;20047;-87
2022/03/27 16:38:59;;;;;;;10.48;3.65;;;;;;;;;;4929399;28;20067;-87
2022/03/27 16:41:28;;;;;;;8.32;4.30;;;;;;;;;;4930961;28;20052;-86
2022/03/27 16:43:54;;;;;;;12.63;4.40;;;;;;;;;;4926551;28;20103;-87
2022/03/27 16:46:21;;;;;;;12.32;4.20;;;;;;;;;;4931826;28;20075;-87
2022/03/27 16:48:48;;;;;;;8.80;4.30;;;;;;;;;;4930350;28;20056;-89
2022/03/27 16:51:15;;;;;;;10.25;4.60;;;;;;;;;;4929586;28;20075;-86
2022/03/27 16:53:43;;;;;;;10.52;4.00;;;;;;;;;;4929709;28;20043;-85
2022/03/27 16:56:15;;;;;;;9.88;4.32;;;;;;;;;;4926877;28;20089;-87
2022/03/27 16:58:43;;;;;;;9.50;4.47;;;;;;;;;;4930367;28;20855;-88
2022/03/27 17:01:10;;;;;;;11.68;4.30;;;;;;;;;;4925192;28;20048;-88
2022/03/27 17:03:37;;;;;;;9.55;4.80;;;;;;;;;;4921706;28;20056;-89
2022/03/27 17:06:04;;;;;;;9.38;4.38;;;;;;;;;;4923170;28;20054;-87
2022/03/27 17:08:30;;;;;;;14.00;4.65;;;;;;;;;;4925906;28;20071;-87
2022/03/27 17:10:57;;;;;;;12.65;4.60;;;;;;;;;;4927182;28;20114;-88
2022/03/27 17:13:24;;;;;;;13.50;4.50;;;;;;;;;;4926005;28;20131;-89
2022/03/27 17:15:51;;;;;;;11.18;4.18;;;;;;;;;;4929171;28;20055;-88
2022/03/27 17:18:19;;;;;;;10.82;4.38;;;;;;;;;;4927377;28;20540;-86
2022/03/27 17:20:46;;;;;;;9.88;4.45;;;;;;;;;;4922100;28;20051;-86
2022/03/27 17:23:13;;;;;;;10.98;4.20;;;;;;;;;;4918748;28;20068;-86
2022/03/27 17:25:40;;;;;;;9.25;4.68;;;;;;;;;;4927154;28;20590;-87
2022/03/27 17:28:07;;;;;;;8.98;4.38;;;;;;;;;;4922816;28;20048;-86
2022/03/27 17:30:35;;;;;;;13.80;5.22;;;;;;;;;;4923130;28;20052;-86
2022/03/27 17:33:02;;;;;;;12.53;5.17;;;;;;;;;;4925772;28;20055;-86
2022/03/27 17:35:28;;;;;;;9.77;4.82;;;;;;;;;;4927079;28;20346;-87
2022/03/27 17:37:55;;;;;;;9.45;4.75;;;;;;;;;;4922894;29;20059;-88
2022/03/27 17:40:21;;;;;;;9.23;4.85;;;;;;;;;;4922356;28;20052;-89
2022/03/27 17:42:48;;;;;;;11.95;4.75;;;;;;;;;;4921895;29;20052;-87
2022/03/27 17:45:17;;;;;;;9.23;4.60;;;;;;;;;;4925457;28;20778;-89
2022/03/27 17:47:44;;;;;;;;;;;;;;;;;;4926490;28;20051;-88
2022/03/27 17:50:10;;;;;;;13.23;5.20;;;;;;;;;;4920254;28;19930;-88
2022/03/27 17:52:37;;;;;;;10.25;4.85;;;;;;;;;;4924949;28;20079;-89
2022/03/27 17:55:04;;;;;;;8.05;4.90;;;;;;;;;;4930882;28;20055;-89
2022/03/27 17:57:30;;;;;;;10.25;4.95;;;;;;;;;;4916323;28;20091;-87
2022/03/27 17:59:59;;;;;;;11.40;5.20;;;;;;;;;;4920295;28;20120;-87
2022/03/27 18:02:25;;;;;;;14.15;4.72;;;;;;;;;;4919487;28;20051;-88
2022/03/27 18:04:52;;;;;;;10.95;4.93;;;;;;;;;;4911194;29;20068;-90
2022/03/27 18:07:22;;;;;;;16.00;5.68;;;;;;;;;;4925967;28;20059;-89
2022/03/27 18:09:48;;;;;;;16.02;5.28;;;;;;;;;;4932070;28;20060;-89
2022/03/27 18:12:17;;;;;;;14.73;4.90;;;;;;;;;;4920162;28;20071;-87
2022/03/27 18:14:44;;;;;;;10.95;5.03;;;;;;;;;;4925608;28;20098;-87
2022/03/27 18:17:12;;;;;;;10.35;4.70;;;;;;;;;;4929848;28;20083;-91
2022/03/27 18:19:39;;;;;;;10.05;5.10;;;;;;;;;;4930994;28;20469;-90
2022/03/27 18:22:05;;;;;;;11.25;5.13;;;;;;;;;;4930784;28;20071;-89
2022/03/27 18:24:32;;;;;;;12.23;5.28;;;;;;;;;;4928821;29;20727;-90
2022/03/27 18:27:00;;;;;;;11.80;4.43;;;;;;;;;;4932197;28;20079;-90
2022/03/27 18:29:26;;;;;;;13.65;5.07;;;;;;;;;;4931501;28;20054;-90
2022/03/27 18:31:53;;;;;;;10.20;4.68;;;;;;;;;;4933548;28;20099;-89
2022/03/27 18:34:21;;;;;;;10.13;4.83;;;;;;;;;;4931416;28;20142;-91
2022/03/27 18:36:48;;;;;;;11.88;5.28;;;;;;;;;;4930279;28;20307;-90
2022/03/27 18:39:15;;;;;;;11.75;4.97;;;;;;;;;;4928714;28;20417;-89
2022/03/27 18:41:42;;;;;;;12.70;6.82;;;;;;;;;;4929822;29;20107;-90
2022/03/27 18:44:08;;;;;;;15.75;8.60;;;;;;;;;;4928151;28;20055;-88
2022/03/27 18:46:35;;;;;;;21.17;9.35;;;;;;;;;;4930554;28;20060;-90
2022/03/27 18:49:02;;;;;;;18.17;8.98;;;;;;;;;;4927712;28;20087;-85
2022/03/27 18:51:28;;;;;;;25.92;11.48;;;;;;;;;;4928445;28;20427;-87
2022/03/27 18:53:56;;;;;;;13.45;7.63;;;;;;;;;;4929166;28;20493;-88
2022/03/27 18:56:24;;;;;;;15.02;5.80;;;;;;;;;;4926051;28;20052;-88
2022/03/27 18:58:51;;;;;;;12.10;5.90;;;;;;;;;;4929088;28;20067;-89
2022/03/27 19:01:17;;;;;;;13.32;5.85;;;;;;;;;;4929143;28;20059;-88
2022/03/27 19:03:44;;;;;;;12.48;5.40;;;;;;;;;;4927926;28;20040;-87
2022/03/27 19:06:18;;;;;;;18.67;6.50;;;;;;;;;;4930653;28;20047;-88
2022/03/27 19:08:45;;;;;;;18.08;6.90;;;;;;;;;;4925418;28;20052;-88
2022/03/27 19:11:11;;;;;;;9.25;5.88;;;;;;;;;;4922448;28;20064;-86
2022/03/27 19:13:38;;;;;;;13.93;6.25;;;;;;;;;;4933069;28;20131;-87
2022/03/27 19:16:06;;;;;;;9.27;5.30;;;;;;;;;;4924698;28;20119;-87
2022/03/27 19:18:40;;;;;;;13.88;6.40;;;;;;;;;;4926794;28;20074;-87
2022/03/27 19:21:16;;;;;;;11.52;5.75;;;;;;;;;;4928030;28;20043;-87
2022/03/27 19:23:43;;;;;;;12.68;5.50;;;;;;;;;;4928527;28;20044;-85
2022/03/27 19:26:12;;;;;;;13.88;5.80;;;;;;;;;;4925802;28;20074;-87
2022/03/27 19:28:39;;;;;;;10.25;5.40;;;;;;;;;;4922198;28;20080;-87
2022/03/27 19:31:08;;;;;;;12.20;5.35;;;;;;;;;;4931565;28;20393;-85
2022/03/27 19:33:35;;;;;;;9.15;5.20;;;;;;;;;;4925378;28;20090;-85
2022/03/27 19:36:02;;;;;;;10.27;5.05;;;;;;;;;;4920408;28;20052;-86
2022/03/27 19:38:30;;;;;;;12.63;6.00;;;;;;;;;;4921431;28;20138;-85
2022/03/27 19:40:57;;;;;;;16.43;6.37;;;;;;;;;;4934472;28;20114;-86
2022/03/27 19:43:23;;;;;;;17.40;5.47;;;;;;;;;;4932584;28;20384;-86
2022/03/27 19:45:52;;;;;;;16.77;5.32;;;;;;;;;;4934218;28;20047;-86
2022/03/27 19:48:19;;;;;;;11.75;5.50;;;;;;;;;;4933151;28;20083;-86
2022/03/27 19:50:45;;;;;;;13.27;5.60;;;;;;;;;;4938817;28;20052;-85
2022/03/27 19:53:12;;;;;;;14.73;5.82;;;;;;;;;;4929171;28;20043;-86
2022/03/27 19:55:40;;;;;;;9.82;5.57;;;;;;;;;;4933907;28;20086;-88
2022/03/27 19:58:07;;;;;;;11.88;5.95;;;;;;;;;;4933961;28;20090;-88
2022/03/27 20:00:35;;;;;;;13.80;5.90;;;;;;;;;;4929683;28;20075;-89
2022/03/27 20:03:05;;;;;;;8.80;6.20;;;;;;;;;;4934102;28;20095;-87
2022/03/27 20:05:33;;;;;;;11.07;6.25;;;;;;;;;;4931956;28;20569;-86
2022/03/27 20:07:59;;;;;;;17.10;7.07;;;;;;;;;;4938291;28;20060;-89
2022/03/27 20:10:26;;;;;;;13.13;6.68;;;;;;;;;;4931385;28;20475;-87
2022/03/27 20:12:54;;;;;;;14.07;6.80;;;;;;;;;;4930558;28;20051;-88
2022/03/27 20:15:25;;;;;;;12.75;6.70;;;;;;;;;;4932850;28;20544;-88
2022/03/27 20:17:52;;;;;;;10.35;6.43;;;;;;;;;;4929888;28;20040;-87
2022/03/27 20:20:18;;;;;;;12.18;7.00;;;;;;;;;;4930745;28;20123;-87
2022/03/27 20:22:45;;;;;;;14.07;6.82;;;;;;;;;;4937382;28;20133;-88
2022/03/27 20:25:13;;;;;;;11.23;6.95;;;;;;;;;;4932716;28;20516;-87
2022/03/27 20:27:40;;;;;;;11.80;7.35;;;;;;;;;;4929649;28;20052;-87
2022/03/27 20:30:27;;;;;;;14.15;7.63;;;;;;;;;;4927053;28;20152;-88
2022/03/27 20:32:53;;;;;;;17.40;6.97;;;;;;;;;;4929150;28;20159;-88
2022/03/27 20:35:20;;;;;;;12.60;7.03;;;;;;;;;;4929377;28;20051;-87
2022/03/27 20:37:48;;;;;;;13.05;6.65;;;;;;;;;;4933273;28;20059;-87
2022/03/27 20:40:20;;;;;;;10.82;6.63;;;;;;;;;;4932983;28;20064;-87
2022/03/27 20:42:48;;;;;;;14.02;6.95;;;;;;;;;;4934439;28;20330;-86
2022/03/27 20:45:15;;;;;;;10.38;6.60;;;;;;;;;;4935628;28;20126;-86
2022/03/27 20:47:42;;;;;;;10.90;6.57;;;;;;;;;;4931906;28;20048;-88
2022/03/27 20:50:08;;;;;;;10.70;6.88;;;;;;;;;;4931149;28;20047;-88
2022/03/27 20:52:35;;;;;;;11.93;6.70;;;;;;;;;;4928929;29;20421;-87